createdAt,value
2023-09-17T00:00:31.054Z,37.70
2023-09-17T00:02:59.827Z,53.10
2023-09-17T00:05:29.034Z,25.33
2023-09-17T00:07:56.900Z,49.58
2023-09-17T00:10:25.310Z,22.88
2023-09-17T00:12:56.037Z,30.77
2023-09-17T00:15:28.250Z,34.08
2023-09-17T00:17:56.232Z,45.33
2023-09-17T00:20:24.187Z,46.30
2023-09-17T00:22:52.194Z,40.90
2023-09-17T00:25:20.250Z,35.25
2023-09-17T00:27:48.148Z,40.30
2023-09-17T00:30:36.137Z,40.13
2023-09-17T00:33:06.041Z,71.18
2023-09-17T00:35:34.565Z,41.95
2023-09-17T00:38:02.399Z,178.35
2023-09-17T00:40:31.877Z,38.88
2023-09-17T00:42:59.924Z,53.08
2023-09-17T00:45:48.028Z,32.63
2023-09-17T00:48:16.018Z,34.22
2023-09-17T00:50:45.384Z,39.83
2023-09-17T00:53:13.103Z,28.75
2023-09-17T00:55:41.601Z,28.08
2023-09-17T00:58:09.401Z,45.10
2023-09-17T01:00:39.792Z,35.90
2023-09-17T01:03:08.455Z,45.78
2023-09-17T01:05:43.585Z,34.75
2023-09-17T01:08:11.736Z,33.25
2023-09-17T01:10:43.207Z,27.80
2023-09-17T01:13:12.241Z,32.88
2023-09-17T01:15:40.313Z,38.20
2023-09-17T01:18:10.716Z,44.70
2023-09-17T01:21:18.168Z,35.07
2023-09-17T01:24:00.934Z,31.25
2023-09-17T01:26:31.709Z,25.73
2023-09-17T01:29:00.318Z,45.97
2023-09-17T01:31:28.669Z,29.33
2023-09-17T01:33:56.894Z,43.00
2023-09-17T01:36:37.053Z,29.10
2023-09-17T01:39:20.246Z,47.83
2023-09-17T01:41:48.975Z,29.75
2023-09-17T01:44:18.280Z,26.05
2023-09-17T01:46:47.289Z,30.45
2023-09-17T01:49:16.137Z,31.45
2023-09-17T01:51:45.225Z,30.30
2023-09-17T01:54:15.542Z,32.45
2023-09-17T01:56:44.478Z,28.92
2023-09-17T01:59:12.553Z,25.67
2023-09-17T02:01:40.724Z,25.17
2023-09-17T02:04:08.703Z,40.55
2023-09-17T02:06:37.693Z,30.50
2023-09-17T02:09:12.615Z,41.75
2023-09-17T02:11:40.551Z,29.98
2023-09-17T02:14:09.226Z,37.92
2023-09-17T02:16:38.470Z,28.52
2023-09-17T02:19:06.581Z,42.55
2023-09-17T02:21:34.847Z,28.77
2023-09-17T02:24:04.203Z,38.10
2023-09-17T02:26:32.205Z,32.85
2023-09-17T02:29:00.097Z,42.67
2023-09-17T02:31:29.059Z,32.05
2023-09-17T02:33:56.998Z,43.90
2023-09-17T02:36:24.868Z,29.75
2023-09-17T02:38:52.818Z,30.98
2023-09-17T02:41:20.878Z,28.73
2023-09-17T02:43:49.228Z,32.10
2023-09-17T02:46:17.394Z,33.35
2023-09-17T02:48:45.885Z,32.30
2023-09-17T02:51:14.331Z,29.95
2023-09-17T02:53:42.510Z,34.40
2023-09-17T02:56:10.244Z,48.90
2023-09-17T02:58:39.424Z,36.55
2023-09-17T03:01:19.308Z,47.05
2023-09-17T03:03:48.706Z,31.95
2023-09-17T03:06:16.952Z,28.73
2023-09-17T03:08:44.939Z,34.08
2023-09-17T03:11:15.049Z,71.13
2023-09-17T03:13:47.537Z,154.60
2023-09-17T03:16:20.191Z,46.88
2023-09-17T03:18:48.265Z,39.15
2023-09-17T03:21:16.434Z,41.30
2023-09-17T03:23:44.764Z,41.60
2023-09-17T03:26:12.755Z,37.65
2023-09-17T03:28:40.780Z,45.55
2023-09-17T03:31:09.177Z,58.45
2023-09-17T03:33:38.276Z,41.45
2023-09-17T03:36:06.328Z,180.60
2023-09-17T03:38:34.457Z,120.47
2023-09-17T03:41:03.940Z,64.47
2023-09-17T03:43:31.963Z,43.40
2023-09-17T03:46:00.243Z,74.45
2023-09-17T03:48:28.617Z,47.97
2023-09-17T03:50:57.073Z,90.47
2023-09-17T03:53:25.377Z,119.03
2023-09-17T03:55:54.559Z,64.43
2023-09-17T03:58:23.073Z,249.10
2023-09-17T04:00:51.025Z,216.27
2023-09-17T04:03:20.502Z,44.25
2023-09-17T04:05:51.327Z,43.33
2023-09-17T04:08:19.500Z,43.67
2023-09-17T04:10:47.555Z,45.88
2023-09-17T04:13:15.384Z,131.32
2023-09-17T04:15:43.211Z,92.75
2023-09-17T04:18:11.658Z,79.78
2023-09-17T04:20:39.571Z,95.07
2023-09-17T04:23:07.767Z,95.00
2023-09-17T04:25:36.611Z,87.68
2023-09-17T04:28:06.485Z,147.57
2023-09-17T04:30:35.643Z,131.50
2023-09-17T04:33:03.561Z,261.63
2023-09-17T04:35:31.490Z,52.75
2023-09-17T04:37:59.737Z,75.43
2023-09-17T04:40:31.840Z,47.88
2023-09-17T04:43:05.288Z,76.05
2023-09-17T04:45:40.754Z,43.95
2023-09-17T04:48:21.177Z,53.70
2023-09-17T04:50:50.031Z,50.08
2023-09-17T04:53:18.669Z,47.00
2023-09-17T04:55:49.790Z,54.73
2023-09-17T04:58:21.432Z,52.83
2023-09-17T05:00:50.778Z,60.88
2023-09-17T05:03:20.369Z,37.67
2023-09-17T05:05:51.048Z,54.70
2023-09-17T05:08:20.641Z,57.40
2023-09-17T05:10:50.147Z,59.45
2023-09-17T05:13:20.958Z,81.93
2023-09-17T05:15:49.926Z,48.20
2023-09-17T05:18:18.013Z,50.78
2023-09-17T05:20:49.668Z,100.75
2023-09-17T05:23:19.214Z,43.53
2023-09-17T05:25:49.609Z,46.20
2023-09-17T05:28:18.284Z,53.83
2023-09-17T05:30:46.265Z,39.70
2023-09-17T05:33:15.077Z,42.38
2023-09-17T05:35:43.624Z,40.35
2023-09-17T05:38:11.669Z,43.80
2023-09-17T05:40:39.581Z,47.30
2023-09-17T05:43:07.581Z,57.22
2023-09-17T05:45:35.732Z,43.63
2023-09-17T05:48:04.472Z,57.47
2023-09-17T05:50:32.393Z,43.95
2023-09-17T05:53:00.870Z,58.95
2023-09-17T05:55:31.056Z,43.50
2023-09-17T05:57:59.798Z,57.93
2023-09-17T06:00:28.515Z,35.75
2023-09-17T06:02:56.763Z,60.03
2023-09-17T06:05:24.965Z,37.78
2023-09-17T06:07:53.380Z,37.92
2023-09-17T06:10:22.381Z,40.53
2023-09-17T06:12:51.014Z,40.17
2023-09-17T06:15:19.841Z,34.97
2023-09-17T06:17:47.725Z,32.35
2023-09-17T06:20:16.691Z,38.38
2023-09-17T06:22:46.591Z,37.55
2023-09-17T06:25:14.474Z,39.47
2023-09-17T06:27:42.513Z,40.70
2023-09-17T06:30:10.777Z,50.83
2023-09-17T06:32:38.991Z,39.63
2023-09-17T06:35:07.811Z,73.38
2023-09-17T06:37:35.831Z,45.28
2023-09-17T06:40:04.571Z,55.90
2023-09-17T06:42:33.256Z,39.10
2023-09-17T06:45:02.098Z,47.97
2023-09-17T06:47:32.008Z,28.65
2023-09-17T06:49:59.945Z,51.35
2023-09-17T06:52:28.716Z,31.58
2023-09-17T06:54:56.697Z,52.03
2023-09-17T06:57:24.584Z,49.53
2023-09-17T06:59:52.426Z,30.00
2023-09-17T07:02:20.565Z,30.85
2023-09-17T07:04:50.003Z,31.65
2023-09-17T07:07:18.181Z,29.05
2023-09-17T07:09:47.377Z,38.05
2023-09-17T07:12:15.119Z,22.63
2023-09-17T07:14:44.565Z,27.80
2023-09-17T07:17:12.648Z,29.80
2023-09-17T07:19:40.570Z,26.83
2023-09-17T07:22:13.505Z,33.92
2023-09-17T07:24:42.678Z,26.63
2023-09-17T07:27:10.844Z,35.22
2023-09-17T07:29:39.217Z,25.50
2023-09-17T07:32:07.168Z,48.85
2023-09-17T07:34:35.648Z,32.63
2023-09-17T07:37:05.862Z,42.10
2023-09-17T07:39:33.991Z,25.25
2023-09-17T07:42:01.877Z,42.08
2023-09-17T07:44:30.056Z,53.97
2023-09-17T07:46:58.841Z,53.40
2023-09-17T07:49:29.419Z,37.33
2023-09-17T07:51:58.627Z,52.85
2023-09-17T07:54:26.769Z,32.20
2023-09-17T07:56:54.504Z,57.40
2023-09-17T07:59:22.409Z,28.80
2023-09-17T08:01:52.695Z,77.57
2023-09-17T08:04:20.849Z,27.13
2023-09-17T08:06:50.087Z,33.30
2023-09-17T08:09:18.455Z,26.70
2023-09-17T08:11:46.315Z,43.50
2023-09-17T08:14:15.485Z,53.50
2023-09-17T08:16:43.446Z,58.42
2023-09-17T08:19:14.095Z,69.28
2023-09-17T08:21:42.660Z,64.07
2023-09-17T08:24:11.387Z,50.13
2023-09-17T08:26:39.335Z,41.22
2023-09-17T08:29:07.375Z,66.60
2023-09-17T08:31:36.184Z,40.88
2023-09-17T08:34:05.310Z,96.40
2023-09-17T08:36:34.163Z,73.82
2023-09-17T08:39:05.396Z,117.22
2023-09-17T08:41:34.439Z,108.45
2023-09-17T08:44:05.276Z,83.03
2023-09-17T08:46:35.022Z,124.82
2023-09-17T08:49:03.495Z,190.18
2023-09-17T08:51:38.485Z,277.38
2023-09-17T08:54:18.687Z,107.88
2023-09-17T08:56:48.429Z,101.05
2023-09-17T08:59:27.998Z,77.15
2023-09-17T09:02:02.092Z,92.30
2023-09-17T09:04:31.913Z,63.63
2023-09-17T09:07:02.045Z,67.47
2023-09-17T09:09:31.303Z,166.20
2023-09-17T09:12:00.316Z,75.60
2023-09-17T09:14:28.891Z,100.35
2023-09-17T09:16:56.817Z,65.13
2023-09-17T09:19:24.893Z,40.72
2023-09-17T09:21:52.740Z,99.40
2023-09-17T09:24:25.346Z,153.55
2023-09-17T09:26:53.701Z,137.73
2023-09-17T09:29:21.707Z,279.52
2023-09-17T09:31:50.026Z,341.92
2023-09-17T09:34:19.166Z,302.63
2023-09-17T09:36:46.977Z,341.88
2023-09-17T09:39:17.676Z,117.78
2023-09-17T09:41:45.609Z,53.95
2023-09-17T09:44:13.565Z,374.02
2023-09-17T09:46:41.941Z,354.05
2023-09-17T09:49:09.994Z,376.60
2023-09-17T09:51:37.832Z,248.25
2023-09-17T09:54:05.973Z,254.10
2023-09-17T09:56:35.589Z,193.60
2023-09-17T09:59:04.439Z,59.05
2023-09-17T10:01:36.252Z,105.18
2023-09-17T10:04:11.958Z,207.05
2023-09-17T10:06:41.947Z,164.75
2023-09-17T10:09:11.985Z,154.63
2023-09-17T10:11:40.622Z,110.70
2023-09-17T10:14:08.679Z,122.82
2023-09-17T10:16:39.954Z,112.43
2023-09-17T10:19:09.080Z,75.30
2023-09-17T10:21:39.389Z,68.55
2023-09-17T10:24:09.286Z,71.30
2023-09-17T10:26:43.402Z,61.33
2023-09-17T10:29:16.350Z,90.75
2023-09-17T10:31:46.388Z,163.80
2023-09-17T10:34:16.918Z,64.43
2023-09-17T10:36:46.962Z,96.13
2023-09-17T10:39:16.357Z,217.52
2023-09-17T10:41:46.089Z,255.77
2023-09-17T10:44:17.073Z,307.73
2023-09-17T10:46:46.714Z,80.82
2023-09-17T10:49:17.379Z,172.35
2023-09-17T10:51:46.938Z,173.65
2023-09-17T10:54:15.862Z,148.40
2023-09-17T10:56:47.339Z,179.07
2023-09-17T10:59:19.082Z,246.75
2023-09-17T11:01:48.925Z,173.50
2023-09-17T11:04:20.786Z,168.90
2023-09-17T11:06:51.334Z,134.35
2023-09-17T11:09:20.708Z,302.63
2023-09-17T11:11:48.862Z,117.05
2023-09-17T11:14:17.242Z,79.25
2023-09-17T11:16:49.879Z,130.50
2023-09-17T11:19:20.573Z,111.45
2023-09-17T11:22:09.028Z,188.88
2023-09-17T11:24:38.233Z,299.25
2023-09-17T11:27:08.859Z,328.40
2023-09-17T11:29:46.826Z,286.60
2023-09-17T11:32:22.609Z,329.63
2023-09-17T11:34:51.120Z,211.90
2023-09-17T11:37:22.280Z,228.60
2023-09-17T11:39:52.231Z,276.80
2023-09-17T11:42:24.376Z,295.88
2023-09-17T11:44:56.261Z,50.53
2023-09-17T11:47:26.382Z,46.92
2023-09-17T11:49:54.657Z,61.67
2023-09-17T11:52:23.981Z,55.75
2023-09-17T11:55:02.191Z,43.78
2023-09-17T11:57:31.951Z,65.78
2023-09-17T11:59:59.864Z,380.83
2023-09-17T12:02:31.404Z,262.50
2023-09-17T12:05:00.718Z,223.77
2023-09-17T12:07:38.941Z,186.07
2023-09-17T12:10:08.675Z,204.18
2023-09-17T12:12:38.053Z,168.30
2023-09-17T12:15:11.540Z,196.80
2023-09-17T12:17:45.029Z,216.18
2023-09-17T12:20:45.567Z,213.90
2023-09-17T12:23:18.103Z,322.85
2023-09-17T12:25:46.410Z,274.63
2023-09-17T12:28:14.265Z,324.77
2023-09-17T12:30:42.567Z,341.30
2023-09-17T12:33:10.957Z,383.80
2023-09-17T12:35:39.571Z,397.35
2023-09-17T12:38:10.114Z,403.30
2023-09-17T12:40:38.394Z,394.25
2023-09-17T12:43:06.150Z,388.73
2023-09-17T12:45:34.033Z,352.25
2023-09-17T12:48:02.007Z,360.80
2023-09-17T12:50:30.245Z,351.90
2023-09-17T12:52:59.428Z,394.27
2023-09-17T12:55:28.638Z,392.90
2023-09-17T12:57:56.644Z,402.52
2023-09-17T13:00:24.990Z,378.10
2023-09-17T13:02:56.129Z,375.92
2023-09-17T13:05:25.701Z,386.35
2023-09-17T13:07:53.750Z,376.30
2023-09-17T13:10:24.669Z,383.13
2023-09-17T13:12:54.188Z,380.73
2023-09-17T13:15:22.396Z,376.83
2023-09-17T13:17:50.506Z,278.40
2023-09-17T13:20:18.671Z,25.45
2023-09-17T13:22:49.629Z,24.10
2023-09-17T13:25:17.980Z,27.40
2023-09-17T13:27:46.171Z,22.67
2023-09-17T13:30:17.103Z,22.55
2023-09-17T13:32:47.502Z,26.88
2023-09-17T13:35:20.393Z,27.75
2023-09-17T13:37:48.475Z,28.27
2023-09-17T13:40:16.332Z,27.80
2023-09-17T13:42:44.767Z,26.17
2023-09-17T13:45:14.960Z,22.00
2023-09-17T13:47:42.842Z,23.52
2023-09-17T13:50:10.802Z,28.77
2023-09-17T13:52:39.107Z,26.65
2023-09-17T13:55:07.618Z,45.92
2023-09-17T13:57:35.779Z,32.53
2023-09-17T14:00:04.431Z,43.33
2023-09-17T14:02:40.730Z,34.45
2023-09-17T14:05:08.844Z,47.97
2023-09-17T14:07:37.007Z,37.80
2023-09-17T14:10:05.638Z,65.60
2023-09-17T14:12:35.128Z,26.05
2023-09-17T14:15:04.237Z,34.65
2023-09-17T14:17:31.979Z,25.60
2023-09-17T14:19:59.930Z,36.60
2023-09-17T14:22:27.721Z,30.08
2023-09-17T14:24:55.769Z,37.72
2023-09-17T14:27:23.853Z,26.42
2023-09-17T14:29:51.684Z,28.23
2023-09-17T14:32:21.205Z,20.23
2023-09-17T14:34:50.838Z,27.42
2023-09-17T14:37:18.584Z,25.85
2023-09-17T14:39:46.505Z,22.40
2023-09-17T14:42:14.205Z,20.10
2023-09-17T14:44:42.012Z,23.10
2023-09-17T14:47:09.853Z,53.20
2023-09-17T14:49:37.755Z,33.95
2023-09-17T14:52:06.241Z,47.80
2023-09-17T14:54:34.355Z,31.00
2023-09-17T14:57:02.432Z,47.67
2023-09-17T14:59:32.387Z,20.35
2023-09-17T15:02:01.743Z,35.38
2023-09-17T15:04:30.526Z,23.10
2023-09-17T15:06:58.918Z,35.97
2023-09-17T15:09:27.349Z,19.85
2023-09-17T15:11:55.210Z,28.88
2023-09-17T15:14:23.072Z,21.23
2023-09-17T15:16:51.128Z,17.02
2023-09-17T15:19:19.125Z,18.98
2023-09-17T15:21:47.365Z,22.10
2023-09-17T15:24:15.469Z,32.00
2023-09-17T15:26:46.770Z,25.73
2023-09-17T15:29:15.283Z,16.75
2023-09-17T15:31:43.494Z,19.45
2023-09-17T15:34:11.832Z,14.85
2023-09-17T15:36:42.414Z,18.00
2023-09-17T15:39:12.122Z,23.40
2023-09-17T15:41:40.190Z,17.88
2023-09-17T15:44:08.130Z,23.90
2023-09-17T15:46:36.886Z,17.45
2023-09-17T15:49:05.053Z,27.88
2023-09-17T15:51:33.323Z,20.95
2023-09-17T15:54:01.231Z,27.15
2023-09-17T15:56:29.054Z,20.02
2023-09-17T15:58:56.855Z,26.73
2023-09-17T16:01:26.309Z,18.60
2023-09-17T16:03:54.235Z,24.25
2023-09-17T16:06:24.836Z,18.30
2023-09-17T16:08:54.350Z,23.55
2023-09-17T16:11:22.746Z,19.15
2023-09-17T16:13:51.277Z,18.02
2023-09-17T16:16:19.675Z,17.25
2023-09-17T16:18:47.561Z,18.20
2023-09-17T16:21:16.312Z,20.92
2023-09-17T16:23:44.665Z,17.23
2023-09-17T16:26:12.747Z,16.58
2023-09-17T16:28:40.832Z,22.70
2023-09-17T16:31:08.840Z,29.63
2023-09-17T16:33:37.062Z,23.50
2023-09-17T16:36:05.112Z,28.98
2023-09-17T16:38:33.046Z,38.35
2023-09-17T16:41:02.858Z,37.55
2023-09-17T16:43:30.859Z,23.67
2023-09-17T16:45:59.805Z,30.38
2023-09-17T16:48:28.097Z,19.23
2023-09-17T16:50:56.336Z,28.63
2023-09-17T16:53:24.394Z,20.70
2023-09-17T16:55:52.859Z,19.35
2023-09-17T16:58:20.809Z,20.35
2023-09-17T17:00:50.727Z,25.50
2023-09-17T17:03:18.935Z,23.08
2023-09-17T17:05:46.940Z,31.40
2023-09-17T17:08:15.713Z,25.50
2023-09-17T17:10:43.689Z,49.17
2023-09-17T17:13:13.148Z,38.28
2023-09-17T17:15:41.106Z,45.25
2023-09-17T17:18:11.277Z,51.90
2023-09-17T17:20:39.591Z,34.85
2023-09-17T17:23:07.371Z,42.78
2023-09-17T17:25:37.103Z,31.25
2023-09-17T17:28:05.283Z,35.92
2023-09-17T17:30:33.486Z,27.95
2023-09-17T17:33:01.356Z,39.33
2023-09-17T17:35:29.529Z,27.70
2023-09-17T17:37:57.303Z,36.85
2023-09-17T17:40:27.991Z,24.40
2023-09-17T17:42:55.965Z,44.97
2023-09-17T17:45:24.398Z,26.38
2023-09-17T17:47:52.325Z,35.60
2023-09-17T17:50:20.200Z,31.45
2023-09-17T17:52:49.892Z,34.60
2023-09-17T17:55:17.774Z,32.13
2023-09-17T17:57:45.816Z,28.83
2023-09-17T18:00:14.406Z,28.45
2023-09-17T18:02:47.396Z,28.67
2023-09-17T18:05:15.763Z,34.42
2023-09-17T18:07:46.215Z,31.10
2023-09-17T18:10:16.321Z,30.40
2023-09-17T18:12:44.313Z,39.80
2023-09-17T18:15:14.703Z,38.00
2023-09-17T18:17:42.937Z,72.07
2023-09-17T18:20:13.889Z,40.70
2023-09-17T18:22:41.995Z,32.55
2023-09-17T18:25:09.932Z,94.40
2023-09-17T18:27:39.168Z,26.75
2023-09-17T18:30:07.676Z,58.75
2023-09-17T18:32:36.007Z,53.10
2023-09-17T18:35:04.681Z,92.82
2023-09-17T18:37:34.553Z,46.78
2023-09-17T18:40:02.722Z,327.25
2023-09-17T18:42:31.746Z,43.20
2023-09-17T18:44:59.721Z,61.28
2023-09-17T18:47:27.682Z,36.40
2023-09-17T18:49:55.578Z,44.83
2023-09-17T18:52:25.645Z,39.30
2023-09-17T18:54:55.429Z,96.68
2023-09-17T18:57:23.803Z,24.23
2023-09-17T18:59:55.325Z,39.90
2023-09-17T19:02:43.852Z,62.30
2023-09-17T19:05:13.715Z,58.03
2023-09-17T19:07:41.714Z,46.08
2023-09-17T19:10:16.151Z,16.92
2023-09-17T19:12:44.728Z,26.55
2023-09-17T19:15:12.505Z,21.98
2023-09-17T19:17:40.947Z,33.28
2023-09-17T19:20:09.300Z,23.67
2023-09-17T19:22:37.438Z,58.70
2023-09-17T19:25:05.924Z,19.30
2023-09-17T19:27:35.214Z,20.58
2023-09-17T19:30:23.689Z,24.13
2023-09-17T19:32:51.762Z,23.75
2023-09-17T19:35:19.654Z,14.48
2023-09-17T19:37:48.119Z,16.27
2023-09-17T19:40:16.029Z,17.98
2023-09-17T19:42:44.132Z,15.63
2023-09-17T19:45:12.351Z,14.07
2023-09-17T19:47:40.667Z,16.52
2023-09-17T19:50:09.113Z,13.77
2023-09-17T19:52:37.224Z,17.05
2023-09-17T19:55:06.188Z,17.70
2023-09-17T19:57:34.389Z,17.58
2023-09-17T20:00:06.016Z,26.40
2023-09-17T20:02:40.585Z,14.25
2023-09-17T20:05:10.373Z,17.00
2023-09-17T20:07:39.938Z,13.57
2023-09-17T20:10:16.666Z,18.33
2023-09-17T20:12:45.754Z,19.48
2023-09-17T20:15:15.097Z,14.35
2023-09-17T20:17:44.190Z,13.85
2023-09-17T20:20:13.149Z,14.52
2023-09-17T20:22:44.459Z,13.38
2023-09-17T20:25:13.607Z,12.48
2023-09-17T20:27:41.342Z,12.93
2023-09-17T20:30:10.065Z,15.75
2023-09-17T20:32:38.236Z,11.73
2023-09-17T20:35:07.170Z,14.77
2023-09-17T20:37:35.278Z,15.85
2023-09-17T20:40:05.586Z,12.95
2023-09-17T20:42:33.670Z,10.98
2023-09-17T20:45:01.474Z,13.10
2023-09-17T20:47:29.625Z,12.38
2023-09-17T20:49:57.685Z,16.48
2023-09-17T20:52:25.715Z,29.77
2023-09-17T20:54:53.632Z,12.57
2023-09-17T20:57:23.400Z,13.15
2023-09-17T20:59:51.228Z,13.73
2023-09-17T21:02:19.163Z,13.85
2023-09-17T21:04:47.007Z,31.25
2023-09-17T21:07:15.121Z,10.50
2023-09-17T21:09:42.883Z,11.45
2023-09-17T21:12:10.863Z,13.93
2023-09-17T21:14:38.659Z,12.07
2023-09-17T21:17:06.522Z,11.70
2023-09-17T21:19:34.909Z,10.80
2023-09-17T21:22:03.141Z,9.60
2023-09-17T21:24:31.787Z,8.75
2023-09-17T21:26:59.584Z,10.90
2023-09-17T21:29:27.787Z,11.30
2023-09-17T21:31:55.821Z,12.35
2023-09-17T21:34:24.048Z,20.92
2023-09-17T21:36:52.288Z,10.48
2023-09-17T21:39:20.290Z,10.25
2023-09-17T21:41:48.061Z,11.80
2023-09-17T21:44:16.321Z,14.65
2023-09-17T21:46:44.207Z,11.35
2023-09-17T21:49:12.610Z,14.00
2023-09-17T21:51:40.733Z,10.85
2023-09-17T21:54:08.649Z,11.60
2023-09-17T21:56:36.536Z,11.48
2023-09-17T21:59:04.666Z,10.88
2023-09-17T22:01:34.206Z,10.40
2023-09-17T22:04:01.964Z,9.35
2023-09-17T22:06:29.896Z,10.70
2023-09-17T22:08:57.654Z,9.95
2023-09-17T22:11:25.608Z,9.80
2023-09-17T22:13:53.798Z,11.77
2023-09-17T22:16:22.167Z,10.27
2023-09-17T22:18:50.565Z,11.60
2023-09-17T22:21:18.902Z,10.05
2023-09-17T22:23:46.692Z,11.30
2023-09-17T22:26:14.888Z,10.25
2023-09-17T22:28:42.721Z,11.57
2023-09-17T22:31:15.103Z,10.63
2023-09-17T22:33:45.818Z,10.25
2023-09-17T22:36:14.102Z,9.55
2023-09-17T22:38:45.054Z,9.50
2023-09-17T22:41:25.761Z,7.68
2023-09-17T22:43:59.740Z,9.33
2023-09-17T22:46:31.725Z,10.77
2023-09-17T22:48:59.668Z,9.23
2023-09-17T22:51:31.436Z,9.77
2023-09-17T22:54:00.587Z,9.50
2023-09-17T22:56:28.806Z,33.80
2023-09-17T22:58:56.694Z,9.77
2023-09-17T23:01:26.213Z,10.02
2023-09-17T23:03:54.206Z,9.93
2023-09-17T23:06:23.195Z,9.43
2023-09-17T23:08:53.391Z,8.93
2023-09-17T23:11:21.536Z,10.05
2023-09-17T23:13:49.377Z,12.68
2023-09-17T23:16:18.133Z,14.73
2023-09-17T23:18:46.467Z,11.18
2023-09-17T23:21:16.400Z,11.05
2023-09-17T23:23:46.075Z,12.45
2023-09-17T23:26:14.429Z,10.82
2023-09-17T23:28:42.813Z,11.50
2023-09-17T23:31:12.024Z,14.35
2023-09-17T23:33:40.679Z,12.15
2023-09-17T23:36:08.793Z,11.45
2023-09-17T23:38:36.552Z,13.95
2023-09-17T23:41:04.512Z,19.40
2023-09-17T23:43:33.743Z,20.60
2023-09-17T23:46:01.807Z,17.50
2023-09-17T23:48:29.894Z,16.15
2023-09-17T23:50:58.653Z,19.90
2023-09-17T23:53:26.628Z,18.15
2023-09-17T23:55:54.739Z,15.60
2023-09-17T23:58:22.768Z,15.38
